Terminal Aerodrome Forecast
Issued by NWS Chicago, IL

Home | Current Version | Previous Version | Text Only | Print | Product List | Glossary Off
Versions: 1 2 3 4 5 6 7 8 9 10 11 12 13 14 15 16 17 18 19 20 21 22 23 24 25 26 27 28 29 30 31 32

000
FTUS43 KLOT 242000 AAA
TAFRFD
TAF AMD
KRFD 242039Z 2421/2518 VRB03KT P6SM SCT060
     FM250800 16005KT P6SM SCT200
     FM251200 18006KT P6SM BKN250
     FM251600 19011KT P6SM SCT025 BKN060 PROB30 2516/2518 -TSRA
      BKN025CB=

USA.gov is the U.S. government's official web portal to all federal, state and local government web resources and services.